Time;durP1;ratioP1;P1;durP2;ratioP2;P2;SDS_P1;SDS_P2;PMS_P1;PMS_P2;Temp;Humidity;BMP_temperature;BMP_pressure;BME280_temperature;BME280_humidity;BME280_pressure;Samples;Min_cycle;Max_cycle;Signal;HPM_P1;HPM_P2
2022/03/20 00:00:26;;;;;;;28.27;16.77;;;;;;;;;;5073628;28;20033;-66
2022/03/20 00:02:52;;;;;;;32.08;18.20;;;;;;;;;;5073638;28;20124;-66
2022/03/20 00:05:18;;;;;;;29.13;16.77;;;;;;;;;;5055796;28;20067;-65
2022/03/20 00:07:44;;;;;;;27.08;17.60;;;;;;;;;;5055889;28;20040;-61
2022/03/20 00:10:10;;;;;;;34.08;18.45;;;;;;;;;;5073043;28;20021;-60
2022/03/20 00:12:36;;;;;;;31.08;19.15;;;;;;;;;;5073551;28;20032;-65
2022/03/20 00:15:03;;;;;;;24.65;17.40;;;;;;;;;;5073394;28;20035;-60
2022/03/20 00:17:29;;;;;;;29.15;18.38;;;;;;;;;;5055961;28;20062;-60
2022/03/20 00:19:54;;;;;;;27.63;17.58;;;;;;;;;;5073522;28;20478;-60
2022/03/20 00:22:20;;;;;;;27.30;17.27;;;;;;;;;;5073514;28;20406;-60
2022/03/20 00:24:46;;;;;;;31.83;17.48;;;;;;;;;;5073619;28;20029;-60
2022/03/20 00:27:13;;;;;;;32.55;18.50;;;;;;;;;;5055533;28;20079;-60
2022/03/20 00:29:39;;;;;;;28.58;17.13;;;;;;;;;;5055819;28;20036;-60
2022/03/20 00:32:06;;;;;;;27.83;16.35;;;;;;;;;;5073565;28;20044;-60
2022/03/20 00:34:31;;;;;;;26.30;17.27;;;;;;;;;;5077858;28;20036;-60
2022/03/20 00:36:57;;;;;;;27.65;16.58;;;;;;;;;;5075812;28;20482;-61
2022/03/20 00:39:22;;;;;;;28.13;17.05;;;;;;;;;;5093407;28;20059;-61
2022/03/20 00:41:48;;;;;;;28.05;17.70;;;;;;;;;;5093449;28;20036;-61
2022/03/20 00:44:13;;;;;;;28.55;17.70;;;;;;;;;;5093598;28;20060;-60
2022/03/20 00:46:40;;;;;;;29.05;18.05;;;;;;;;;;5094020;28;20112;-60
2022/03/20 00:49:05;;;;;;;27.63;16.60;;;;;;;;;;5093597;28;20016;-60
2022/03/20 00:51:31;;;;;;;28.17;17.63;;;;;;;;;;5075558;28;20477;-60
2022/03/20 00:53:56;;;;;;;35.17;19.35;;;;;;;;;;5093541;28;20443;-60
2022/03/20 00:56:22;;;;;;;28.50;18.33;;;;;;;;;;5093350;28;20370;-60
2022/03/20 00:58:47;;;;;;;27.38;17.20;;;;;;;;;;5093541;28;20404;-60
2022/03/20 01:01:14;;;;;;;29.20;17.13;;;;;;;;;;5075223;28;20428;-60
2022/03/20 01:03:40;;;;;;;27.45;16.67;;;;;;;;;;5093589;28;20107;-60
2022/03/20 01:06:07;;;;;;;28.75;16.92;;;;;;;;;;5093436;28;20086;-60
2022/03/20 01:08:32;;;;;;;30.17;17.33;;;;;;;;;;5093303;28;20028;-60
2022/03/20 01:10:58;;;;;;;25.15;17.38;;;;;;;;;;5093586;28;20481;-60
2022/03/20 01:13:23;;;;;;;27.58;16.42;;;;;;;;;;5075443;28;20497;-60
2022/03/20 01:15:49;;;;;;;26.73;16.42;;;;;;;;;;5093165;28;20553;-60
2022/03/20 01:18:14;;;;;;;26.65;16.55;;;;;;;;;;5093307;28;20024;-60
2022/03/20 01:20:40;;;;;;;24.85;16.50;;;;;;;;;;5095283;28;20032;-60
2022/03/20 01:23:05;;;;;;;26.52;16.98;;;;;;;;;;5097311;28;20037;-60
2022/03/20 01:25:31;;;;;;;27.80;16.58;;;;;;;;;;5097003;28;20044;-60
2022/03/20 01:27:56;;;;;;;27.60;17.17;;;;;;;;;;5097092;28;20036;-60
2022/03/20 01:30:22;;;;;;;28.00;17.30;;;;;;;;;;5078966;28;20040;-60
2022/03/20 01:32:47;;;;;;;26.48;16.73;;;;;;;;;;5097382;28;20406;-60
2022/03/20 01:35:13;;;;;;;28.63;16.98;;;;;;;;;;5096390;28;20048;-60
2022/03/20 01:37:41;;;;;;;28.77;18.13;;;;;;;;;;5078605;28;20032;-60
2022/03/20 01:40:07;;;;;;;28.02;17.75;;;;;;;;;;5096692;28;20035;-59
2022/03/20 01:42:33;;;;;;;26.77;16.55;;;;;;;;;;5096822;28;20062;-60
2022/03/20 01:44:58;;;;;;;26.83;17.10;;;;;;;;;;5096442;28;20068;-60
2022/03/20 01:47:23;;;;;;;29.77;17.02;;;;;;;;;;5096841;28;20044;-60
2022/03/20 01:49:49;;;;;;;32.50;17.02;;;;;;;;;;5078405;28;20036;-59
2022/03/20 01:52:15;;;;;;;30.92;16.50;;;;;;;;;;5096807;28;20097;-60
2022/03/20 01:54:42;;;;;;;29.08;17.58;;;;;;;;;;5096266;28;20038;-60
2022/03/20 01:57:09;;;;;;;32.60;18.50;;;;;;;;;;5096875;28;20055;-61
2022/03/20 01:59:34;;;;;;;27.67;17.67;;;;;;;;;;5078582;28;20048;-61
2022/03/20 02:02:01;;;;;;;29.80;17.98;;;;;;;;;;5096598;28;20024;-61
2022/03/20 02:04:30;;;;;;;29.73;18.27;;;;;;;;;;5096290;28;20028;-61
2022/03/20 02:06:57;;;;;;;29.73;18.08;;;;;;;;;;5096227;28;20028;-61
2022/03/20 02:09:23;;;;;;;34.95;19.23;;;;;;;;;;5096208;28;20036;-60
2022/03/20 02:11:48;;;;;;;34.42;18.25;;;;;;;;;;5096255;28;20531;-60
2022/03/20 02:14:14;;;;;;;28.10;18.10;;;;;;;;;;5096090;28;20032;-60
2022/03/20 02:16:40;;;;;;;32.90;18.85;;;;;;;;;;5095807;28;20017;-60
2022/03/20 02:19:12;;;;;;;29.83;18.50;;;;;;;;;;5095955;28;20042;-60
2022/03/20 02:21:42;;;;;;;28.13;17.77;;;;;;;;;;5096033;28;20036;-60
2022/03/20 02:24:26;;;;;;;29.33;18.08;;;;;;;;;;5096004;28;20389;-60
2022/03/20 02:27:00;;;;;;;30.35;17.27;;;;;;;;;;5095810;28;20031;-60
2022/03/20 02:29:26;;;;;;;26.95;17.88;;;;;;;;;;5095817;28;20086;-60
2022/03/20 02:31:51;;;;;;;29.38;18.13;;;;;;;;;;5076961;28;20089;-60
2022/03/20 02:34:16;;;;;;;27.73;17.67;;;;;;;;;;5077124;28;20166;-60
2022/03/20 02:36:42;;;;;;;28.67;19.23;;;;;;;;;;5095583;28;20036;-60
2022/03/20 02:39:07;;;;;;;28.70;17.08;;;;;;;;;;5095839;28;20032;-60
2022/03/20 02:41:33;;;;;;;28.77;17.00;;;;;;;;;;5095714;28;20020;-60
2022/03/20 02:44:01;;;;;;;30.17;18.15;;;;;;;;;;5095701;28;20390;-60
2022/03/20 02:46:27;;;;;;;30.58;19.13;;;;;;;;;;5095651;28;20028;-59
2022/03/20 02:48:53;;;;;;;29.35;17.90;;;;;;;;;;5095538;28;20036;-59
2022/03/20 02:51:18;;;;;;;30.90;18.83;;;;;;;;;;5095774;28;20024;-60
2022/03/20 02:53:44;;;;;;;29.33;18.67;;;;;;;;;;5077622;28;20060;-60
2022/03/20 02:56:10;;;;;;;29.85;18.48;;;;;;;;;;5095614;28;20020;-60
2022/03/20 02:58:36;;;;;;;29.80;18.65;;;;;;;;;;5095292;28;20076;-60
2022/03/20 03:01:02;;;;;;;26.73;17.00;;;;;;;;;;5095422;28;20454;-60
2022/03/20 03:03:27;;;;;;;29.65;18.65;;;;;;;;;;5095231;28;20035;-60
2022/03/20 03:05:56;;;;;;;27.50;17.67;;;;;;;;;;5095128;28;20389;-60
2022/03/20 03:11:05;;;;;;;29.33;17.30;;;;;;;;;;5095301;28;20402;-59
2022/03/20 03:13:34;;;;;;;30.20;18.48;;;;;;;;;;5095045;28;20082;-60
2022/03/20 03:16:01;;;;;;;30.57;17.80;;;;;;;;;;5095114;28;20043;-60
2022/03/20 03:18:27;;;;;;;31.02;18.70;;;;;;;;;;5094773;28;20589;-60
2022/03/20 03:20:53;;;;;;;29.13;17.48;;;;;;;;;;5094817;28;20043;-60
2022/03/20 03:23:20;;;;;;;28.05;17.77;;;;;;;;;;5094935;28;20035;-65
2022/03/20 03:25:46;;;;;;;27.00;18.52;;;;;;;;;;5094641;28;20043;-65
2022/03/20 03:28:11;;;;;;;28.88;17.92;;;;;;;;;;5094822;28;20023;-66
2022/03/20 03:30:38;;;;;;;28.30;17.35;;;;;;;;;;5093983;28;20040;-66
2022/03/20 03:33:03;;;;;;;27.50;17.48;;;;;;;;;;5094754;28;20036;-66
2022/03/20 03:35:47;;;;;;;24.92;17.65;;;;;;;;;;5063495;28;20043;-67
2022/03/20 03:38:13;;;;;;;29.10;17.52;;;;;;;;;;5074631;28;20039;-66
2022/03/20 03:40:39;;;;;;;27.42;17.02;;;;;;;;;;5074283;28;20082;-66
2022/03/20 03:43:05;;;;;;;27.35;16.77;;;;;;;;;;5073609;28;20032;-66
2022/03/20 03:45:30;;;;;;;26.40;17.27;;;;;;;;;;5073646;28;20047;-66
2022/03/20 03:47:56;;;;;;;28.90;17.13;;;;;;;;;;5074188;28;20144;-60
2022/03/20 03:50:21;;;;;;;28.05;18.13;;;;;;;;;;5073965;28;20064;-60
2022/03/20 03:52:47;;;;;;;28.60;16.60;;;;;;;;;;5074078;28;20043;-60
2022/03/20 03:55:13;;;;;;;28.02;16.35;;;;;;;;;;5074080;28;20066;-60
2022/03/20 03:57:46;;;;;;;27.63;17.02;;;;;;;;;;5074119;28;20488;-60
2022/03/20 04:00:12;;;;;;;26.52;17.15;;;;;;;;;;5074065;28;20398;-60
2022/03/20 04:02:44;;;;;;;26.65;16.33;;;;;;;;;;5074258;28;20442;-60
2022/03/20 04:05:10;;;;;;;28.50;16.98;;;;;;;;;;5073814;28;20041;-60
2022/03/20 04:07:35;;;;;;;25.75;17.02;;;;;;;;;;5073934;28;20070;-66
2022/03/20 04:10:02;;;;;;;28.02;17.60;;;;;;;;;;5073683;28;20124;-67
2022/03/20 04:12:28;;;;;;;27.75;16.92;;;;;;;;;;5073982;28;20028;-67
2022/03/20 04:14:57;;;;;;;29.23;18.15;;;;;;;;;;5073763;28;20042;-66
2022/03/20 04:17:22;;;;;;;29.40;17.65;;;;;;;;;;5073689;28;20027;-65
2022/03/20 04:19:48;;;;;;;26.88;17.02;;;;;;;;;;5073542;28;20028;-65
2022/03/20 04:22:15;;;;;;;27.98;16.85;;;;;;;;;;5073684;28;20034;-60
2022/03/20 04:24:40;;;;;;;27.85;17.67;;;;;;;;;;5073524;28;20040;-60
2022/03/20 04:27:06;;;;;;;32.97;18.73;;;;;;;;;;5073542;28;20043;-60
2022/03/20 04:29:32;;;;;;;28.20;17.95;;;;;;;;;;5073490;28;20036;-60
2022/03/20 04:31:57;;;;;;;30.60;19.00;;;;;;;;;;5073409;28;20020;-60
2022/03/20 04:34:23;;;;;;;30.05;17.58;;;;;;;;;;5076299;28;20040;-60
2022/03/20 04:36:49;;;;;;;29.38;18.40;;;;;;;;;;5093754;28;20475;-60
2022/03/20 04:39:14;;;;;;;27.73;17.40;;;;;;;;;;5093771;28;20378;-65
2022/03/20 04:41:41;;;;;;;30.10;19.40;;;;;;;;;;5093843;28;20029;-65
2022/03/20 04:44:12;;;;;;;32.35;19.05;;;;;;;;;;5093588;28;20039;-65
2022/03/20 04:46:38;;;;;;;30.10;18.27;;;;;;;;;;5093753;28;20028;-65
2022/03/20 04:59:58;;;;;;;27.75;18.27;;;;;;;;;;5079742;28;20414;-65
2022/03/20 05:02:24;;;;;;;30.35;18.67;;;;;;;;;;5097698;28;20067;-65
2022/03/20 05:04:50;;;;;;;30.55;19.33;;;;;;;;;;5097808;28;20068;-65
2022/03/20 05:07:15;;;;;;;28.85;20.48;;;;;;;;;;5079288;28;20072;-66
2022/03/20 05:15:09;;;;;;;34.75;26.08;;;;;;;;;;5079399;28;20352;-66
2022/03/20 05:17:35;;;;;;;31.23;20.02;;;;;;;;;;5097309;28;20024;-66
2022/03/20 05:20:01;;;;;;;33.97;25.27;;;;;;;;;;5096967;28;20040;-66
2022/03/20 05:22:26;;;;;;;40.40;28.85;;;;;;;;;;5097197;28;20489;-66
2022/03/20 05:24:52;;;;;;;39.97;27.15;;;;;;;;;;5097256;28;20036;-66
2022/03/20 05:27:18;;;;;;;33.30;21.73;;;;;;;;;;5097179;28;20032;-66
2022/03/20 05:29:43;;;;;;;31.98;20.95;;;;;;;;;;5097034;28;20040;-66
2022/03/20 05:32:09;;;;;;;30.90;20.42;;;;;;;;;;5097165;28;20491;-66
2022/03/20 05:34:36;;;;;;;32.10;21.05;;;;;;;;;;5096411;28;20107;-60
2022/03/20 05:37:03;;;;;;;35.28;22.30;;;;;;;;;;5097188;28;20139;-66
2022/03/20 05:39:28;;;;;;;34.45;22.38;;;;;;;;;;5097190;28;20135;-66
2022/03/20 05:41:54;;;;;;;34.40;20.25;;;;;;;;;;5096805;28;20434;-67
2022/03/20 05:44:20;;;;;;;32.05;21.20;;;;;;;;;;5097041;28;20059;-61
2022/03/20 05:46:46;;;;;;;35.90;21.10;;;;;;;;;;5061921;28;20075;-61
2022/03/20 05:49:12;;;;;;;35.50;25.27;;;;;;;;;;5096628;28;20028;-66
2022/03/20 05:51:38;;;;;;;37.95;22.40;;;;;;;;;;5096827;28;20028;-66
2022/03/20 05:54:04;;;;;;;36.15;21.75;;;;;;;;;;5096519;28;20051;-66
2022/03/20 05:59:14;;;;;;;34.42;23.30;;;;;;;;;;5096627;28;20051;-61
2022/03/20 06:01:39;;;;;;;43.15;27.83;;;;;;;;;;5096214;28;20021;-65
2022/03/20 06:04:05;;;;;;;31.42;22.20;;;;;;;;;;5096473;28;20028;-67
2022/03/20 06:06:31;;;;;;;36.15;26.55;;;;;;;;;;5094970;28;20034;-66
2022/03/20 06:08:57;;;;;;;35.65;23.48;;;;;;;;;;5096247;28;20043;-67
2022/03/20 06:11:22;;;;;;;32.47;21.08;;;;;;;;;;5096143;28;20101;-66
2022/03/20 06:13:49;;;;;;;32.13;21.30;;;;;;;;;;5096033;28;20075;-66
2022/03/20 06:16:15;;;;;;;32.42;19.20;;;;;;;;;;5096064;28;20078;-66
2022/03/20 06:18:42;;;;;;;32.58;21.15;;;;;;;;;;5095990;28;20032;-61
2022/03/20 06:21:09;;;;;;;32.40;19.52;;;;;;;;;;5096410;28;20032;-60
2022/03/20 06:23:34;;;;;;;37.85;25.23;;;;;;;;;;5096066;28;20048;-60
2022/03/20 06:26:00;;;;;;;34.22;24.73;;;;;;;;;;5078168;28;20028;-60
2022/03/20 06:28:26;;;;;;;31.67;20.42;;;;;;;;;;5096188;28;20036;-60
2022/03/20 06:30:52;;;;;;;34.03;22.63;;;;;;;;;;5095786;28;20032;-66
2022/03/20 06:33:17;;;;;;;35.75;23.38;;;;;;;;;;5095587;28;20047;-66
2022/03/20 06:35:43;;;;;;;31.02;19.95;;;;;;;;;;5095332;28;20117;-66
2022/03/20 06:38:09;;;;;;;36.45;22.15;;;;;;;;;;5095457;28;20032;-66
2022/03/20 06:40:34;;;;;;;32.80;22.08;;;;;;;;;;5095477;28;20039;-66
2022/03/20 06:43:00;;;;;;;28.95;18.58;;;;;;;;;;5095440;28;20495;-66
2022/03/20 06:45:26;;;;;;;32.33;20.05;;;;;;;;;;5095188;28;20024;-66
2022/03/20 06:47:52;;;;;;;31.52;19.13;;;;;;;;;;5077521;28;20063;-66
2022/03/20 06:50:17;;;;;;;32.58;18.98;;;;;;;;;;5095503;28;20039;-66
2022/03/20 06:52:43;;;;;;;31.27;21.13;;;;;;;;;;5095128;28;20089;-65
2022/03/20 06:55:12;;;;;;;31.77;20.08;;;;;;;;;;5076921;28;20032;-66
2022/03/20 06:57:40;;;;;;;32.55;19.92;;;;;;;;;;5095484;28;20032;-65
2022/03/20 07:00:06;;;;;;;29.25;19.20;;;;;;;;;;5095234;28;20462;-66
2022/03/20 07:02:41;;;;;;;32.92;23.42;;;;;;;;;;5077446;28;20157;-67
2022/03/20 07:05:07;;;;;;;46.70;34.30;;;;;;;;;;5095167;28;20398;-64
2022/03/20 07:07:34;;;;;;;28.67;18.05;;;;;;;;;;5094991;28;20432;-63
2022/03/20 07:09:59;;;;;;;38.28;26.05;;;;;;;;;;5094748;28;20044;-63
2022/03/20 07:12:25;;;;;;;28.80;18.92;;;;;;;;;;5095043;28;20028;-64
2022/03/20 07:14:51;;;;;;;26.58;17.05;;;;;;;;;;5076816;28;20086;-72
2022/03/20 07:17:18;;;;;;;29.48;19.15;;;;;;;;;;5095313;28;20020;-64
2022/03/20 07:19:44;;;;;;;29.63;20.20;;;;;;;;;;5094630;28;20055;-64
2022/03/20 07:22:10;;;;;;;27.08;17.63;;;;;;;;;;5095183;28;20469;-64
2022/03/20 07:24:37;;;;;;;28.17;17.77;;;;;;;;;;5094992;28;20028;-64
2022/03/20 07:29:49;;;;;;;37.05;22.73;;;;;;;;;;5094718;28;20055;-70
2022/03/20 07:32:15;;;;;;;48.55;26.02;;;;;;;;;;5094626;28;20028;-70
2022/03/20 07:34:45;;;;;;;29.40;18.73;;;;;;;;;;5070368;28;20097;-70
2022/03/20 07:37:12;;;;;;;27.58;18.23;;;;;;;;;;5074368;28;20056;-70
2022/03/20 07:39:38;;;;;;;25.98;16.55;;;;;;;;;;5056567;28;20036;-70
2022/03/20 07:42:04;;;;;;;25.23;15.63;;;;;;;;;;5074090;28;20070;-70
2022/03/20 07:44:31;;;;;;;19.75;13.25;;;;;;;;;;5074240;28;20036;-67
2022/03/20 07:46:57;;;;;;;30.05;19.52;;;;;;;;;;5074053;28;20025;-67
2022/03/20 07:49:23;;;;;;;23.83;16.08;;;;;;;;;;5073858;28;20045;-62
2022/03/20 07:51:50;;;;;;;23.70;14.32;;;;;;;;;;5074084;28;20017;-62
2022/03/20 07:54:16;;;;;;;21.40;14.18;;;;;;;;;;5073912;28;20120;-62
2022/03/20 07:56:41;;;;;;;23.05;15.13;;;;;;;;;;5073816;28;20112;-62
2022/03/20 07:59:08;;;;;;;20.02;14.23;;;;;;;;;;5073840;28;20051;-62
2022/03/20 08:01:35;;;;;;;26.40;16.58;;;;;;;;;;5073897;28;20490;-62
2022/03/20 08:04:02;;;;;;;20.90;13.88;;;;;;;;;;5073359;28;20040;-62
2022/03/20 08:06:28;;;;;;;25.15;14.00;;;;;;;;;;5073555;28;20669;-62
2022/03/20 08:08:54;;;;;;;21.02;14.80;;;;;;;;;;5072130;28;20558;-61
2022/03/20 08:11:19;;;;;;;23.27;15.57;;;;;;;;;;5073511;28;20028;-61
2022/03/20 08:13:45;;;;;;;27.10;16.23;;;;;;;;;;5073176;28;20040;-61
2022/03/20 08:16:15;;;;;;;23.58;13.95;;;;;;;;;;5072861;28;20560;-61
2022/03/20 08:18:43;;;;;;;20.13;12.68;;;;;;;;;;5072870;28;20040;-61
2022/03/20 08:21:09;;;;;;;22.20;13.77;;;;;;;;;;5072726;28;20024;-61
2022/03/20 08:23:36;;;;;;;22.77;13.05;;;;;;;;;;5055159;28;20039;-61
2022/03/20 08:26:01;;;;;;;20.45;13.20;;;;;;;;;;5073245;28;20036;-62
2022/03/20 08:28:26;;;;;;;17.27;12.05;;;;;;;;;;5073230;28;20482;-62
2022/03/20 08:30:52;;;;;;;25.00;15.23;;;;;;;;;;5072560;28;20029;-62
2022/03/20 08:33:17;;;;;;;17.55;12.35;;;;;;;;;;5055190;28;20040;-61
2022/03/20 08:35:44;;;;;;;15.25;11.63;;;;;;;;;;5087594;28;20036;-61
2022/03/20 08:38:09;;;;;;;15.23;11.38;;;;;;;;;;5093445;28;20085;-61
2022/03/20 08:40:35;;;;;;;16.70;11.18;;;;;;;;;;5093335;28;20073;-61
2022/03/20 08:43:04;;;;;;;17.73;11.82;;;;;;;;;;5093211;28;20066;-61
2022/03/20 08:45:31;;;;;;;22.80;14.38;;;;;;;;;;5093098;28;20047;-61
2022/03/20 08:47:57;;;;;;;15.35;11.25;;;;;;;;;;5093095;28;20378;-61
2022/03/20 08:50:23;;;;;;;15.98;10.55;;;;;;;;;;5093090;28;20039;-62
2022/03/20 08:52:49;;;;;;;15.68;11.00;;;;;;;;;;5093089;28;20024;-62
2022/03/20 08:55:14;;;;;;;15.00;10.93;;;;;;;;;;5093007;28;20094;-62
2022/03/20 08:57:41;;;;;;;15.52;11.63;;;;;;;;;;5092847;28;20042;-61
2022/03/20 09:00:07;;;;;;;14.68;10.75;;;;;;;;;;5093133;28;20035;-62
2022/03/20 09:02:32;;;;;;;15.20;10.48;;;;;;;;;;5092896;28;20039;-61
2022/03/20 09:04:58;;;;;;;14.40;10.20;;;;;;;;;;5092973;28;20032;-61
2022/03/20 09:07:23;;;;;;;14.77;10.13;;;;;;;;;;5093107;28;20122;-62
2022/03/20 09:09:48;;;;;;;14.10;10.40;;;;;;;;;;5074976;28;20107;-61
2022/03/20 09:12:14;;;;;;;13.45;10.65;;;;;;;;;;5092878;28;20517;-62
2022/03/20 09:14:39;;;;;;;18.73;12.55;;;;;;;;;;5074785;28;20432;-61
2022/03/20 09:19:49;;;;;;;17.67;11.65;;;;;;;;;;5092973;28;20558;-62
2022/03/20 09:22:16;;;;;;;16.15;11.52;;;;;;;;;;5092883;28;20107;-61
2022/03/20 09:24:42;;;;;;;19.40;13.05;;;;;;;;;;5092809;28;20039;-62
2022/03/20 09:27:07;;;;;;;18.00;13.50;;;;;;;;;;5092829;28;20103;-61
2022/03/20 09:29:32;;;;;;;16.63;11.63;;;;;;;;;;5092836;28;20040;-61
2022/03/20 09:31:59;;;;;;;16.55;11.75;;;;;;;;;;5092766;28;20058;-61
2022/03/20 09:34:25;;;;;;;17.50;11.93;;;;;;;;;;5074233;28;20075;-61
2022/03/20 09:36:50;;;;;;;18.77;12.70;;;;;;;;;;5092922;28;20047;-61
2022/03/20 09:39:15;;;;;;;15.82;11.82;;;;;;;;;;5074464;28;20036;-61
2022/03/20 09:41:41;;;;;;;18.98;12.55;;;;;;;;;;5094443;28;20028;-61
2022/03/20 09:44:07;;;;;;;15.30;11.30;;;;;;;;;;5096450;28;20039;-61
2022/03/20 09:46:33;;;;;;;18.23;13.70;;;;;;;;;;5096289;28;20031;-61
2022/03/20 09:48:59;;;;;;;24.83;18.27;;;;;;;;;;5096287;28;20470;-61
2022/03/20 09:51:24;;;;;;;17.75;12.05;;;;;;;;;;5096601;28;20382;-62
2022/03/20 09:53:50;;;;;;;20.52;15.55;;;;;;;;;;5061394;28;20135;-62
2022/03/20 09:56:16;;;;;;;18.55;13.73;;;;;;;;;;5095946;28;20118;-61
2022/03/20 09:58:41;;;;;;;19.10;14.02;;;;;;;;;;5096221;28;20139;-61
2022/03/20 10:01:08;;;;;;;17.75;11.90;;;;;;;;;;5096261;28;20083;-62
2022/03/20 10:03:34;;;;;;;15.45;11.23;;;;;;;;;;5077855;28;20039;-62
2022/03/20 10:06:05;;;;;;;19.35;11.80;;;;;;;;;;5096036;28;20028;-62
2022/03/20 10:08:32;;;;;;;16.23;11.52;;;;;;;;;;5095960;28;20063;-62
2022/03/20 10:11:13;;;;;;;18.35;12.57;;;;;;;;;;5095892;28;20484;-61
2022/03/20 10:13:39;;;;;;;17.30;11.57;;;;;;;;;;5095919;28;20036;-61
2022/03/20 10:16:17;;;;;;;16.20;11.80;;;;;;;;;;5095814;28;20035;-62
2022/03/20 10:18:43;;;;;;;16.23;11.75;;;;;;;;;;5095781;28;20036;-62
2022/03/20 10:21:09;;;;;;;17.67;11.95;;;;;;;;;;5077598;28;20123;-62
2022/03/20 10:23:36;;;;;;;16.42;10.88;;;;;;;;;;5095664;28;20043;-62
2022/03/20 10:26:04;;;;;;;15.48;11.32;;;;;;;;;;5095713;28;20036;-62
2022/03/20 10:28:36;;;;;;;15.00;10.45;;;;;;;;;;5095646;28;20040;-61
2022/03/20 10:31:03;;;;;;;17.70;11.68;;;;;;;;;;5095507;28;20124;-61
2022/03/20 10:33:28;;;;;;;13.23;10.10;;;;;;;;;;5095601;28;20028;-61
2022/03/20 10:36:13;;;;;;;16.52;11.38;;;;;;;;;;5095291;28;20150;-61
2022/03/20 10:38:38;;;;;;;14.70;10.95;;;;;;;;;;5095312;28;20035;-61
2022/03/20 10:41:16;;;;;;;10.93;7.75;;;;;;;;;;5077185;28;20024;-61
2022/03/20 10:43:42;;;;;;;15.48;11.48;;;;;;;;;;5095384;28;20044;-61
2022/03/20 10:46:07;;;;;;;11.13;8.02;;;;;;;;;;5094887;28;20533;-61
2022/03/20 10:48:35;;;;;;;13.02;9.38;;;;;;;;;;5095186;28;20046;-61
2022/03/20 10:51:01;;;;;;;14.77;11.27;;;;;;;;;;5095212;28;20040;-61
2022/03/20 10:53:27;;;;;;;56.80;34.42;;;;;;;;;;5094573;28;20528;-61
2022/03/20 10:55:57;;;;;;;14.50;9.90;;;;;;;;;;5095028;28;20060;-61
2022/03/20 10:58:24;;;;;;;35.17;16.70;;;;;;;;;;5095179;28;20039;-62
2022/03/20 11:00:50;;;;;;;15.55;11.38;;;;;;;;;;5095107;28;20024;-62
2022/03/20 11:03:19;;;;;;;16.92;12.50;;;;;;;;;;5094874;28;20039;-61
2022/03/20 11:05:45;;;;;;;12.13;7.47;;;;;;;;;;5094797;28;20028;-61
2022/03/20 11:08:10;;;;;;;13.55;10.18;;;;;;;;;;5094748;28;20036;-61
2022/03/20 11:10:36;;;;;;;13.40;8.05;;;;;;;;;;5094719;28;20513;-61
2022/03/20 11:13:01;;;;;;;12.05;8.27;;;;;;;;;;5094676;28;20044;-61
2022/03/20 11:15:28;;;;;;;10.68;7.65;;;;;;;;;;5094544;28;20039;-61
2022/03/20 11:17:54;;;;;;;11.38;8.95;;;;;;;;;;5094646;28;20028;-62
2022/03/20 11:20:22;;;;;;;15.95;9.85;;;;;;;;;;5094560;28;20077;-61
2022/03/20 11:22:49;;;;;;;11.02;7.97;;;;;;;;;;5094498;28;20119;-61
2022/03/20 11:25:20;;;;;;;10.60;8.90;;;;;;;;;;5094452;28;20041;-61
2022/03/20 11:27:47;;;;;;;11.82;8.98;;;;;;;;;;5094540;28;20490;-62
2022/03/20 11:30:13;;;;;;;9.88;6.78;;;;;;;;;;5094479;28;20446;-62
2022/03/20 11:32:42;;;;;;;9.50;7.43;;;;;;;;;;5094453;28;20036;-62
2022/03/20 11:35:08;;;;;;;14.18;9.40;;;;;;;;;;5094074;28;20039;-61
2022/03/20 11:37:44;;;;;;;10.60;8.25;;;;;;;;;;5094218;28;20089;-61
2022/03/20 11:40:13;;;;;;;24.98;14.18;;;;;;;;;;5075985;28;20462;-61
2022/03/20 11:42:38;;;;;;;21.65;15.35;;;;;;;;;;5094345;28;20024;-61
2022/03/20 11:45:07;;;;;;;11.00;9.05;;;;;;;;;;5094216;28;20379;-61
2022/03/20 11:47:34;;;;;;;16.38;10.70;;;;;;;;;;5094021;28;20043;-61
2022/03/20 11:50:15;;;;;;;12.23;9.35;;;;;;;;;;5094013;28;20124;-61
2022/03/20 11:52:45;;;;;;;11.55;8.57;;;;;;;;;;5094135;28;20410;-62
2022/03/20 11:55:26;;;;;;;15.65;10.45;;;;;;;;;;5075860;28;20166;-62
2022/03/20 11:57:51;;;;;;;11.80;9.05;;;;;;;;;;5093857;28;20032;-61
2022/03/20 12:00:19;;;;;;;10.02;7.32;;;;;;;;;;5093865;28;20013;-62
2022/03/20 12:02:47;;;;;;;7.25;6.30;;;;;;;;;;5093868;28;20035;-61
2022/03/20 12:05:13;;;;;;;12.73;9.00;;;;;;;;;;5093042;28;20165;-62
2022/03/20 12:08:04;;;;;;;30.27;18.55;;;;;;;;;;5093806;28;20507;-62
2022/03/20 12:10:49;;;;;;;11.90;8.63;;;;;;;;;;5093726;28;20047;-61
2022/03/20 12:13:27;;;;;;;12.32;9.07;;;;;;;;;;5093777;28;20055;-61
2022/03/20 12:15:53;;;;;;;19.50;10.30;;;;;;;;;;5075480;28;20043;-61
2022/03/20 12:18:19;;;;;;;16.17;11.45;;;;;;;;;;5093634;28;20036;-61
2022/03/20 12:21:01;;;;;;;15.27;9.88;;;;;;;;;;5075409;28;20440;-61
2022/03/20 12:23:30;;;;;;;11.23;7.20;;;;;;;;;;5093507;28;20032;-62
2022/03/20 12:26:18;;;;;;;41.35;19.90;;;;;;;;;;5093361;28;20032;-61
2022/03/20 12:28:43;;;;;;;5.93;5.22;;;;;;;;;;5093392;28;20129;-61
2022/03/20 12:31:08;;;;;;;7.38;6.15;;;;;;;;;;5093289;28;20054;-61
2022/03/20 12:33:34;;;;;;;13.35;8.68;;;;;;;;;;5075242;28;20036;-61
2022/03/20 12:35:59;;;;;;;8.70;6.90;;;;;;;;;;5058360;28;20214;-61
2022/03/20 12:38:44;;;;;;;12.55;7.30;;;;;;;;;;5073046;28;20035;-61
2022/03/20 12:41:11;;;;;;;16.88;8.80;;;;;;;;;;5073225;28;20150;-61
2022/03/20 12:43:37;;;;;;;16.70;10.45;;;;;;;;;;5055127;28;20020;-62
2022/03/20 12:46:05;;;;;;;13.20;8.10;;;;;;;;;;5072959;28;20037;-62
2022/03/20 12:48:33;;;;;;;8.48;6.65;;;;;;;;;;5073027;28;20036;-62
2022/03/20 12:51:01;;;;;;;11.57;7.38;;;;;;;;;;5073037;28;20047;-61
2022/03/20 12:53:36;;;;;;;5.43;4.93;;;;;;;;;;5055152;28;20024;-61
2022/03/20 12:56:06;;;;;;;8.32;5.72;;;;;;;;;;5072852;28;20040;-62
2022/03/20 12:58:32;;;;;;;11.27;7.53;;;;;;;;;;5073035;28;20040;-62
2022/03/20 13:00:58;;;;;;;10.23;6.78;;;;;;;;;;5054940;28;20112;-61
2022/03/20 13:03:26;;;;;;;10.90;8.27;;;;;;;;;;5072783;28;20037;-61
2022/03/20 13:05:53;;;;;;;9.27;7.28;;;;;;;;;;5072774;28;20034;-61
2022/03/20 13:08:22;;;;;;;19.98;14.60;;;;;;;;;;5072751;28;20040;-61
2022/03/20 13:10:48;;;;;;;10.07;7.05;;;;;;;;;;5072773;28;20028;-62
2022/03/20 13:13:16;;;;;;;8.35;7.15;;;;;;;;;;5072798;28;20037;-62
2022/03/20 13:15:42;;;;;;;11.10;7.28;;;;;;;;;;5072829;28;20036;-61
2022/03/20 13:18:08;;;;;;;10.50;7.40;;;;;;;;;;5076574;28;20043;-61
2022/03/20 13:20:38;;;;;;;9.55;7.13;;;;;;;;;;5058642;28;20032;-62
2022/03/20 13:23:30;;;;;;;9.82;7.95;;;;;;;;;;5076738;28;20428;-61
2022/03/20 13:25:57;;;;;;;9.90;7.85;;;;;;;;;;5071977;28;20045;-61
2022/03/20 13:28:27;;;;;;;9.05;7.00;;;;;;;;;;5076319;28;20032;-61
2022/03/20 13:30:54;;;;;;;8.33;6.67;;;;;;;;;;5076420;28;20052;-61
2022/03/20 13:33:30;;;;;;;52.20;24.58;;;;;;;;;;5076395;28;20025;-61
2022/03/20 13:35:56;;;;;;;10.00;6.60;;;;;;;;;;5092470;28;20044;-62
2022/03/20 13:38:22;;;;;;;7.10;5.80;;;;;;;;;;5096482;28;20040;-62
2022/03/20 13:40:47;;;;;;;7.43;6.28;;;;;;;;;;5096440;28;20043;-61
2022/03/20 13:43:20;;;;;;;7.03;6.28;;;;;;;;;;5096435;28;20016;-61
2022/03/20 13:45:45;;;;;;;8.77;6.47;;;;;;;;;;5078240;28;20035;-61
2022/03/20 13:48:12;;;;;;;7.03;5.55;;;;;;;;;;5078160;28;20042;-61
2022/03/20 13:50:37;;;;;;;9.05;6.13;;;;;;;;;;5096216;28;20504;-62
2022/03/20 13:53:02;;;;;;;8.43;7.10;;;;;;;;;;5096261;28;20024;-62
2022/03/20 13:55:34;;;;;;;6.13;5.53;;;;;;;;;;5096096;28;20084;-62
2022/03/20 13:58:00;;;;;;;7.63;5.07;;;;;;;;;;5096379;28;20051;-61
2022/03/20 14:00:35;;;;;;;7.10;6.03;;;;;;;;;;5096388;28;20028;-61
2022/03/20 14:03:02;;;;;;;5.20;4.65;;;;;;;;;;5077928;28;20130;-62
2022/03/20 14:05:27;;;;;;;6.13;4.57;;;;;;;;;;5095977;28;20040;-62
2022/03/20 14:08:08;;;;;;;4.70;4.05;;;;;;;;;;5095971;28;20539;-62
2022/03/20 14:10:43;;;;;;;7.43;6.18;;;;;;;;;;5095994;28;20036;-61
2022/03/20 14:13:17;;;;;;;7.82;5.65;;;;;;;;;;5095964;28;20035;-61
2022/03/20 14:15:52;;;;;;;9.13;5.43;;;;;;;;;;5095707;28;20474;-61
2022/03/20 14:18:18;;;;;;;4.45;4.05;;;;;;;;;;5077672;28;20127;-61
2022/03/20 14:20:43;;;;;;;7.22;4.45;;;;;;;;;;5095624;28;20119;-61
2022/03/20 14:23:10;;;;;;;4.93;4.20;;;;;;;;;;5095242;28;20070;-61
2022/03/20 14:25:42;;;;;;;7.78;5.45;;;;;;;;;;5096108;28;20032;-61
2022/03/20 14:28:10;;;;;;;9.38;5.78;;;;;;;;;;5095043;28;20121;-66
2022/03/20 14:41:38;;;;;;;6.50;5.28;;;;;;;;;;5095650;28;20059;-66
2022/03/20 14:44:14;;;;;;;5.47;4.93;;;;;;;;;;5095705;28;20059;-66
2022/03/20 14:46:44;;;;;;;4.78;4.38;;;;;;;;;;5095571;28;20032;-67
2022/03/20 14:49:09;;;;;;;5.75;3.65;;;;;;;;;;5095586;28;20493;-66
2022/03/20 14:51:37;;;;;;;10.20;4.60;;;;;;;;;;5095607;28;20067;-66
2022/03/20 14:54:03;;;;;;;7.28;6.45;;;;;;;;;;5095566;28;20160;-66
2022/03/20 14:56:29;;;;;;;16.17;14.48;;;;;;;;;;5095435;28;20130;-66
2022/03/20 14:58:57;;;;;;;10.60;9.30;;;;;;;;;;5095368;28;20060;-66